sensor_id;sensor_type;location;lat;lon;timestamp;pressure;altitude;pressure_sealevel;temperature;humidity
49999;BME280;68071;45.062;7.356;2023-03-23T00:02:54;95039.63;;;9.87;81.41
49999;BME280;68071;45.062;7.356;2023-03-23T00:05:59;95053.44;;;9.83;82.05
49999;BME280;68071;45.062;7.356;2023-03-23T00:09:09;95057.75;;;9.88;81.50
49999;BME280;68071;45.062;7.356;2023-03-23T00:12:13;95049.91;;;9.83;81.78
49999;BME280;68071;45.062;7.356;2023-03-23T00:15:19;95059.50;;;9.64;83.25
49999;BME280;68071;45.062;7.356;2023-03-23T00:18:23;95048.91;;;9.55;83.69
49999;BME280;68071;45.062;7.356;2023-03-23T00:21:34;95051.78;;;9.37;84.74
49999;BME280;68071;45.062;7.356;2023-03-23T00:24:38;95048.38;;;9.78;82.14
49999;BME280;68071;45.062;7.356;2023-03-23T00:27:42;95047.59;;;10.23;79.08
49999;BME280;68071;45.062;7.356;2023-03-23T00:30:47;95043.97;;;9.88;81.59
49999;BME280;68071;45.062;7.356;2023-03-23T00:33:51;95038.16;;;9.68;83.06
49999;BME280;68071;45.062;7.356;2023-03-23T00:36:56;95040.22;;;9.57;83.50
49999;BME280;68071;45.062;7.356;2023-03-23T00:40:02;95035.03;;;9.69;83.46
49999;BME280;68071;45.062;7.356;2023-03-23T00:43:10;95034.00;;;9.42;85.44
49999;BME280;68071;45.062;7.356;2023-03-23T00:46:17;95031.19;;;9.52;84.16
49999;BME280;68071;45.062;7.356;2023-03-23T00:49:25;95028.19;;;9.85;82.27
49999;BME280;68071;45.062;7.356;2023-03-23T00:52:29;95027.41;;;9.84;82.31
49999;BME280;68071;45.062;7.356;2023-03-23T00:55:33;95027.88;;;9.76;82.11
49999;BME280;68071;45.062;7.356;2023-03-23T00:58:38;95027.63;;;9.56;84.32
49999;BME280;68071;45.062;7.356;2023-03-23T01:01:43;95018.06;;;9.71;82.55
49999;BME280;68071;45.062;7.356;2023-03-23T01:04:48;95025.00;;;9.34;86.48
49999;BME280;68071;45.062;7.356;2023-03-23T01:07:55;95019.13;;;9.84;82.56
49999;BME280;68071;45.062;7.356;2023-03-23T01:11:04;95015.16;;;9.86;82.71
49999;BME280;68071;45.062;7.356;2023-03-23T01:14:10;95016.56;;;10.08;81.35
49999;BME280;68071;45.062;7.356;2023-03-23T01:17:14;95011.94;;;9.94;81.81
49999;BME280;68071;45.062;7.356;2023-03-23T01:20:18;95006.50;;;9.87;82.90
49999;BME280;68071;45.062;7.356;2023-03-23T01:23:23;94998.59;;;9.86;83.16
49999;BME280;68071;45.062;7.356;2023-03-23T01:26:28;94998.88;;;9.53;85.97
49999;BME280;68071;45.062;7.356;2023-03-23T01:29:34;95001.47;;;9.75;83.06
49999;BME280;68071;45.062;7.356;2023-03-23T01:32:38;94990.47;;;10.13;80.63
49999;BME280;68071;45.062;7.356;2023-03-23T01:35:43;94992.66;;;10.33;79.65
49999;BME280;68071;45.062;7.356;2023-03-23T01:38:49;94991.72;;;9.63;85.52
49999;BME280;68071;45.062;7.356;2023-03-23T01:41:53;94987.28;;;9.16;88.65
49999;BME280;68071;45.062;7.356;2023-03-23T01:45:32;94987.53;;;9.36;86.03
49999;BME280;68071;45.062;7.356;2023-03-23T01:48:39;94991.63;;;9.74;83.87
49999;BME280;68071;45.062;7.356;2023-03-23T01:51:48;94988.75;;;9.84;82.03
49999;BME280;68071;45.062;7.356;2023-03-23T01:54:54;94985.34;;;10.15;79.95
49999;BME280;68071;45.062;7.356;2023-03-23T01:58:00;94976.53;;;9.86;81.94
49999;BME280;68071;45.062;7.356;2023-03-23T02:01:10;94989.34;;;9.61;83.23
49999;BME280;68071;45.062;7.356;2023-03-23T02:04:16;94983.25;;;9.32;85.57
49999;BME280;68071;45.062;7.356;2023-03-23T02:07:22;94977.63;;;9.50;83.84
49999;BME280;68071;45.062;7.356;2023-03-23T02:10:30;94980.09;;;9.33;85.62
49999;BME280;68071;45.062;7.356;2023-03-23T02:13:35;94975.88;;;9.14;86.33
49999;BME280;68071;45.062;7.356;2023-03-23T02:16:47;94976.47;;;9.44;84.30
49999;BME280;68071;45.062;7.356;2023-03-23T02:23:07;94974.53;;;9.37;84.00
49999;BME280;68071;45.062;7.356;2023-03-23T02:36:25;94976.00;;;9.52;83.85
49999;BME280;68071;45.062;7.356;2023-03-23T02:40:02;94980.22;;;9.12;86.57
49999;BME280;68071;45.062;7.356;2023-03-23T02:43:21;94975.84;;;9.21;86.15
49999;BME280;68071;45.062;7.356;2023-03-23T02:46:28;94982.94;;;9.15;86.69
49999;BME280;68071;45.062;7.356;2023-03-23T02:49:36;94981.66;;;9.34;85.43
49999;BME280;68071;45.062;7.356;2023-03-23T02:52:43;94982.03;;;9.86;81.65
49999;BME280;68071;45.062;7.356;2023-03-23T02:55:48;94976.97;;;9.28;86.82
49999;BME280;68071;45.062;7.356;2023-03-23T02:58:59;94981.34;;;9.18;87.76
49999;BME280;68071;45.062;7.356;2023-03-23T03:02:12;94970.41;;;9.07;88.90
49999;BME280;68071;45.062;7.356;2023-03-23T03:05:39;94971.75;;;9.41;86.15
49999;BME280;68071;45.062;7.356;2023-03-23T03:08:50;94969.19;;;9.12;89.39
49999;BME280;68071;45.062;7.356;2023-03-23T03:12:06;94964.50;;;9.05;89.81
49999;BME280;68071;45.062;7.356;2023-03-23T03:15:22;94977.03;;;9.17;89.32
49999;BME280;68071;45.062;7.356;2023-03-23T03:18:28;94970.31;;;9.21;88.60
49999;BME280;68071;45.062;7.356;2023-03-23T03:21:37;94964.75;;;9.81;83.93
49999;BME280;68071;45.062;7.356;2023-03-23T03:24:44;94970.75;;;9.73;85.46
49999;BME280;68071;45.062;7.356;2023-03-23T03:27:51;94971.84;;;9.79;84.05
49999;BME280;68071;45.062;7.356;2023-03-23T03:31:10;94975.72;;;9.89;85.01
49999;BME280;68071;45.062;7.356;2023-03-23T03:34:15;94976.13;;;9.87;83.90
49999;BME280;68071;45.062;7.356;2023-03-23T03:37:25;94974.53;;;9.90;84.14
49999;BME280;68071;45.062;7.356;2023-03-23T03:40:30;94975.47;;;9.72;85.98
49999;BME280;68071;45.062;7.356;2023-03-23T03:43:35;94975.53;;;9.61;85.23
49999;BME280;68071;45.062;7.356;2023-03-23T03:46:42;94979.84;;;9.66;85.42
49999;BME280;68071;45.062;7.356;2023-03-23T03:49:46;94984.03;;;9.85;84.68
49999;BME280;68071;45.062;7.356;2023-03-23T03:52:50;94990.25;;;9.44;88.42
49999;BME280;68071;45.062;7.356;2023-03-23T03:55:54;94982.47;;;9.31;88.80
49999;BME280;68071;45.062;7.356;2023-03-23T03:59:09;94983.03;;;9.01;92.64
49999;BME280;68071;45.062;7.356;2023-03-23T04:02:49;94990.09;;;9.05;91.71
49999;BME280;68071;45.062;7.356;2023-03-23T04:06:34;94979.00;;;9.16;90.41
49999;BME280;68071;45.062;7.356;2023-03-23T04:09:40;94989.56;;;9.32;90.98
49999;BME280;68071;45.062;7.356;2023-03-23T04:12:50;94979.13;;;9.58;84.10
49999;BME280;68071;45.062;7.356;2023-03-23T04:16:32;94979.28;;;9.86;83.24
49999;BME280;68071;45.062;7.356;2023-03-23T04:19:38;94982.84;;;9.86;82.60
49999;BME280;68071;45.062;7.356;2023-03-23T04:22:45;94988.56;;;10.06;83.67
49999;BME280;68071;45.062;7.356;2023-03-23T04:25:53;94984.09;;;10.23;84.03
49999;BME280;68071;45.062;7.356;2023-03-23T04:29:02;94996.81;;;10.13;83.15
49999;BME280;68071;45.062;7.356;2023-03-23T04:32:25;94991.41;;;9.99;83.19
49999;BME280;68071;45.062;7.356;2023-03-23T04:35:33;94996.16;;;9.46;88.55
49999;BME280;68071;45.062;7.356;2023-03-23T04:39:03;94998.78;;;9.04;92.52
49999;BME280;68071;45.062;7.356;2023-03-23T04:42:12;95001.56;;;8.97;93.72
49999;BME280;68071;45.062;7.356;2023-03-23T04:45:35;94999.53;;;9.08;91.89
49999;BME280;68071;45.062;7.356;2023-03-23T04:48:43;95003.41;;;9.21;91.34
49999;BME280;68071;45.062;7.356;2023-03-23T04:51:54;95007.72;;;9.19;91.17
49999;BME280;68071;45.062;7.356;2023-03-23T04:55:18;95008.13;;;9.21;91.87
49999;BME280;68071;45.062;7.356;2023-03-23T04:58:31;95012.19;;;8.98;93.82
49999;BME280;68071;45.062;7.356;2023-03-23T05:01:56;94999.84;;;9.25;90.37
49999;BME280;68071;45.062;7.356;2023-03-23T05:05:01;95000.94;;;9.38;89.01
49999;BME280;68071;45.062;7.356;2023-03-23T05:08:07;94993.50;;;9.31;90.18
49999;BME280;68071;45.062;7.356;2023-03-23T05:11:15;94994.28;;;9.32;90.45
49999;BME280;68071;45.062;7.356;2023-03-23T05:14:20;94990.09;;;9.65;88.30
49999;BME280;68071;45.062;7.356;2023-03-23T05:17:37;94991.41;;;9.50;87.83
49999;BME280;68071;45.062;7.356;2023-03-23T05:20:49;94993.22;;;9.07;92.39
49999;BME280;68071;45.062;7.356;2023-03-23T05:23:58;94992.94;;;8.84;95.00
49999;BME280;68071;45.062;7.356;2023-03-23T05:27:06;94982.00;;;8.62;96.53
49999;BME280;68071;45.062;7.356;2023-03-23T05:30:15;94992.19;;;8.83;94.16
49999;BME280;68071;45.062;7.356;2023-03-23T05:33:22;94981.78;;;9.09;90.11
49999;BME280;68071;45.062;7.356;2023-03-23T05:36:33;94987.41;;;8.91;92.34
49999;BME280;68071;45.062;7.356;2023-03-23T05:40:05;94989.53;;;8.58;93.05
49999;BME280;68071;45.062;7.356;2023-03-23T05:43:22;94992.09;;;8.98;89.53
49999;BME280;68071;45.062;7.356;2023-03-23T05:46:45;94990.50;;;9.00;88.73
49999;BME280;68071;45.062;7.356;2023-03-23T05:49:51;95001.25;;;8.76;91.81
49999;BME280;68071;45.062;7.356;2023-03-23T05:52:57;95001.31;;;8.66;92.76
49999;BME280;68071;45.062;7.356;2023-03-23T05:56:02;95003.25;;;8.65;92.99
49999;BME280;68071;45.062;7.356;2023-03-23T05:59:25;95011.41;;;8.94;91.51
49999;BME280;68071;45.062;7.356;2023-03-23T06:02:32;95027.13;;;9.01;90.67
49999;BME280;68071;45.062;7.356;2023-03-23T06:05:43;95026.56;;;9.35;87.05
49999;BME280;68071;45.062;7.356;2023-03-23T06:08:52;95026.28;;;9.15;91.25
49999;BME280;68071;45.062;7.356;2023-03-23T06:12:05;95029.03;;;9.18;89.39
49999;BME280;68071;45.062;7.356;2023-03-23T06:15:29;95035.16;;;9.48;87.01
49999;BME280;68071;45.062;7.356;2023-03-23T06:18:48;95031.41;;;9.16;90.77
49999;BME280;68071;45.062;7.356;2023-03-23T06:22:06;95044.13;;;8.85;91.67
49999;BME280;68071;45.062;7.356;2023-03-23T06:25:45;95037.28;;;9.18;86.81
49999;BME280;68071;45.062;7.356;2023-03-23T06:28:50;95034.41;;;9.36;83.64
49999;BME280;68071;45.062;7.356;2023-03-23T06:31:56;95036.97;;;9.05;88.46
49999;BME280;68071;45.062;7.356;2023-03-23T06:35:05;95044.50;;;8.90;89.36
49999;BME280;68071;45.062;7.356;2023-03-23T06:38:32;95044.22;;;8.48;92.35
49999;BME280;68071;45.062;7.356;2023-03-23T06:41:37;95048.13;;;8.66;89.41
49999;BME280;68071;45.062;7.356;2023-03-23T06:44:41;95060.34;;;8.43;92.14
49999;BME280;68071;45.062;7.356;2023-03-23T06:47:46;95065.47;;;8.37;91.58
49999;BME280;68071;45.062;7.356;2023-03-23T06:50:52;95065.41;;;8.84;87.88
49999;BME280;68071;45.062;7.356;2023-03-23T06:53:58;95067.72;;;8.93;88.48
49999;BME280;68071;45.062;7.356;2023-03-23T06:57:07;95070.03;;;9.05;87.16
49999;BME280;68071;45.062;7.356;2023-03-23T07:00:12;95062.22;;;8.93;88.69
49999;BME280;68071;45.062;7.356;2023-03-23T07:03:18;95068.63;;;8.39;90.47
49999;BME280;68071;45.062;7.356;2023-03-23T07:06:24;95070.22;;;8.18;93.38
49999;BME280;68071;45.062;7.356;2023-03-23T07:09:34;95079.66;;;8.03;94.35
49999;BME280;68071;45.062;7.356;2023-03-23T07:12:38;95068.63;;;8.14;95.23
49999;BME280;68071;45.062;7.356;2023-03-23T07:15:44;95071.75;;;8.67;92.97
49999;BME280;68071;45.062;7.356;2023-03-23T07:18:48;95058.59;;;9.11;93.56
49999;BME280;68071;45.062;7.356;2023-03-23T07:21:53;95071.03;;;9.48;92.32
49999;BME280;68071;45.062;7.356;2023-03-23T07:25:00;95066.09;;;9.81;89.94
49999;BME280;68071;45.062;7.356;2023-03-23T07:28:09;95072.44;;;10.27;84.37
49999;BME280;68071;45.062;7.356;2023-03-23T07:31:13;95070.13;;;10.67;85.65
49999;BME280;68071;45.062;7.356;2023-03-23T07:34:19;95068.66;;;10.94;82.95
49999;BME280;68071;45.062;7.356;2023-03-23T07:37:44;95075.50;;;11.16;80.90
49999;BME280;68071;45.062;7.356;2023-03-23T07:40:49;95069.78;;;11.31;79.18
49999;BME280;68071;45.062;7.356;2023-03-23T07:43:55;95071.84;;;11.54;78.16
49999;BME280;68071;45.062;7.356;2023-03-23T07:47:08;95075.41;;;11.55;79.61
49999;BME280;68071;45.062;7.356;2023-03-23T07:50:13;95076.25;;;11.79;77.84
49999;BME280;68071;45.062;7.356;2023-03-23T07:53:19;95075.72;;;11.88;77.96
49999;BME280;68071;45.062;7.356;2023-03-23T07:56:34;95085.81;;;11.74;76.99
49999;BME280;68071;45.062;7.356;2023-03-23T07:59:52;95088.25;;;12.00;74.98
49999;BME280;68071;45.062;7.356;2023-03-23T08:02:57;95092.34;;;12.15;74.50
49999;BME280;68071;45.062;7.356;2023-03-23T08:06:12;95096.22;;;12.21;74.42
49999;BME280;68071;45.062;7.356;2023-03-23T08:09:25;95093.66;;;12.34;72.13
49999;BME280;68071;45.062;7.356;2023-03-23T08:12:57;95089.66;;;12.59;71.50
49999;BME280;68071;45.062;7.356;2023-03-23T08:16:05;95092.09;;;12.57;71.82
49999;BME280;68071;45.062;7.356;2023-03-23T08:19:28;95088.06;;;12.82;70.29
49999;BME280;68071;45.062;7.356;2023-03-23T08:22:56;95081.97;;;12.91;69.34
49999;BME280;68071;45.062;7.356;2023-03-23T08:26:19;95086.47;;;12.84;68.43
49999;BME280;68071;45.062;7.356;2023-03-23T08:29:52;95089.31;;;13.01;67.82
49999;BME280;68071;45.062;7.356;2023-03-23T08:33:19;95106.00;;;12.97;68.15
49999;BME280;68071;45.062;7.356;2023-03-23T08:36:37;95109.59;;;13.58;67.54
49999;BME280;68071;45.062;7.356;2023-03-23T08:40:00;95111.56;;;14.15;65.35
49999;BME280;68071;45.062;7.356;2023-03-23T08:43:17;95112.19;;;14.22;65.08
49999;BME280;68071;45.062;7.356;2023-03-23T08:46:40;95110.44;;;13.75;66.59
49999;BME280;68071;45.062;7.356;2023-03-23T08:49:55;95107.47;;;13.66;66.36
49999;BME280;68071;45.062;7.356;2023-03-23T08:53:19;95099.66;;;13.61;66.05
49999;BME280;68071;45.062;7.356;2023-03-23T08:56:25;95111.41;;;13.69;66.12
49999;BME280;68071;45.062;7.356;2023-03-23T08:59:53;95102.81;;;13.80;63.96
49999;BME280;68071;45.062;7.356;2023-03-23T09:03:19;95104.09;;;13.75;65.93
49999;BME280;68071;45.062;7.356;2023-03-23T09:06:50;95105.78;;;13.89;64.99
49999;BME280;68071;45.062;7.356;2023-03-23T09:09:55;95102.06;;;14.12;65.00
49999;BME280;68071;45.062;7.356;2023-03-23T09:13:18;95108.78;;;14.48;64.17
49999;BME280;68071;45.062;7.356;2023-03-23T09:16:22;95102.88;;;14.46;61.50
49999;BME280;68071;45.062;7.356;2023-03-23T09:19:26;95109.06;;;14.37;63.43
49999;BME280;68071;45.062;7.356;2023-03-23T09:22:31;95111.06;;;14.36;64.45
49999;BME280;68071;45.062;7.356;2023-03-23T09:25:35;95113.34;;;13.88;64.46
49999;BME280;68071;45.062;7.356;2023-03-23T09:28:39;95101.94;;;14.19;68.18
49999;BME280;68071;45.062;7.356;2023-03-23T09:31:44;95101.66;;;14.30;64.68
49999;BME280;68071;45.062;7.356;2023-03-23T09:34:50;95101.50;;;14.54;63.34
49999;BME280;68071;45.062;7.356;2023-03-23T09:37:55;95095.41;;;14.76;64.71
49999;BME280;68071;45.062;7.356;2023-03-23T09:42:03;95091.13;;;14.88;63.20
49999;BME280;68071;45.062;7.356;2023-03-23T09:45:10;95090.69;;;14.89;64.13
49999;BME280;68071;45.062;7.356;2023-03-23T09:48:28;95086.50;;;14.97;61.44
49999;BME280;68071;45.062;7.356;2023-03-23T09:51:42;95092.94;;;14.94;64.47
49999;BME280;68071;45.062;7.356;2023-03-23T09:54:53;95081.63;;;15.02;64.52
49999;BME280;68071;45.062;7.356;2023-03-23T09:58:02;95078.28;;;14.77;64.06
49999;BME280;68071;45.062;7.356;2023-03-23T10:01:23;95077.72;;;14.99;64.96
49999;BME280;68071;45.062;7.356;2023-03-23T10:04:41;95078.69;;;14.92;65.71
49999;BME280;68071;45.062;7.356;2023-03-23T10:07:47;95075.28;;;15.01;62.08
49999;BME280;68071;45.062;7.356;2023-03-23T10:11:04;95080.84;;;15.31;62.78
49999;BME280;68071;45.062;7.356;2023-03-23T10:14:28;95082.50;;;15.83;60.58
49999;BME280;68071;45.062;7.356;2023-03-23T10:21:00;95081.69;;;15.57;59.16
49999;BME280;68071;45.062;7.356;2023-03-23T10:24:09;95088.88;;;15.41;60.89
49999;BME280;68071;45.062;7.356;2023-03-23T10:27:22;95084.31;;;15.48;63.36
49999;BME280;68071;45.062;7.356;2023-03-23T10:30:39;95078.75;;;15.48;60.24
49999;BME280;68071;45.062;7.356;2023-03-23T10:33:47;95082.78;;;15.60;60.15
49999;BME280;68071;45.062;7.356;2023-03-23T10:36:59;95076.47;;;15.85;62.06
49999;BME280;68071;45.062;7.356;2023-03-23T10:40:11;95081.94;;;15.76;61.31
49999;BME280;68071;45.062;7.356;2023-03-23T10:43:18;95078.72;;;15.35;62.83
49999;BME280;68071;45.062;7.356;2023-03-23T10:50:02;95081.28;;;16.10;61.09
49999;BME280;68071;45.062;7.356;2023-03-23T10:53:15;95084.31;;;16.03;61.44
49999;BME280;68071;45.062;7.356;2023-03-23T10:56:27;95085.50;;;15.76;59.22
49999;BME280;68071;45.062;7.356;2023-03-23T10:59:31;95085.75;;;16.08;57.05
49999;BME280;68071;45.062;7.356;2023-03-23T11:02:41;95087.84;;;15.78;60.20
49999;BME280;68071;45.062;7.356;2023-03-23T11:05:52;95080.75;;;16.02;57.82
49999;BME280;68071;45.062;7.356;2023-03-23T11:09:00;95082.53;;;16.09;58.75
49999;BME280;68071;45.062;7.356;2023-03-23T11:12:16;95073.63;;;15.88;57.36
49999;BME280;68071;45.062;7.356;2023-03-23T11:15:34;95071.41;;;15.96;58.72
49999;BME280;68071;45.062;7.356;2023-03-23T11:18:42;95069.81;;;16.08;61.76
49999;BME280;68071;45.062;7.356;2023-03-23T11:21:55;95065.00;;;16.35;58.17
49999;BME280;68071;45.062;7.356;2023-03-23T11:25:04;95064.69;;;15.94;58.32
49999;BME280;68071;45.062;7.356;2023-03-23T11:28:09;95058.28;;;16.58;59.42
49999;BME280;68071;45.062;7.356;2023-03-23T11:31:13;95057.13;;;16.55;57.69
49999;BME280;68071;45.062;7.356;2023-03-23T11:34:23;95058.75;;;16.43;57.39
49999;BME280;68071;45.062;7.356;2023-03-23T11:40:50;95065.22;;;16.27;57.20
49999;BME280;68071;45.062;7.356;2023-03-23T11:43:55;95062.84;;;17.00;56.53
49999;BME280;68071;45.062;7.356;2023-03-23T11:50:29;95063.75;;;16.97;54.47
49999;BME280;68071;45.062;7.356;2023-03-23T11:56:42;95056.31;;;17.38;55.48
49999;BME280;68071;45.062;7.356;2023-03-23T11:59:46;95053.13;;;17.49;53.97
49999;BME280;68071;45.062;7.356;2023-03-23T12:03:05;95054.28;;;17.16;56.17
49999;BME280;68071;45.062;7.356;2023-03-23T12:06:19;95044.91;;;17.54;55.66
49999;BME280;68071;45.062;7.356;2023-03-23T12:19:25;95025.72;;;17.34;53.21
49999;BME280;68071;45.062;7.356;2023-03-23T12:22:40;95034.75;;;16.81;56.66
49999;BME280;68071;45.062;7.356;2023-03-23T12:25:51;95031.97;;;16.33;56.13
49999;BME280;68071;45.062;7.356;2023-03-23T12:29:23;95018.63;;;16.15;57.60
49999;BME280;68071;45.062;7.356;2023-03-23T12:42:59;95009.44;;;16.40;55.32
49999;BME280;68071;45.062;7.356;2023-03-23T12:46:27;95008.50;;;16.91;54.95
49999;BME280;68071;45.062;7.356;2023-03-23T12:49:41;95004.13;;;16.90;54.63
49999;BME280;68071;45.062;7.356;2023-03-23T12:52:58;94991.38;;;16.67;56.58
49999;BME280;68071;45.062;7.356;2023-03-23T13:12:18;94980.47;;;17.90;49.20
49999;BME280;68071;45.062;7.356;2023-03-23T13:15:44;94973.16;;;18.24;48.33
49999;BME280;68071;45.062;7.356;2023-03-23T13:22:37;94974.38;;;16.74;54.21
49999;BME280;68071;45.062;7.356;2023-03-23T13:26:02;94972.13;;;16.82;56.87
49999;BME280;68071;45.062;7.356;2023-03-23T13:29:14;94962.94;;;17.48;53.19
49999;BME280;68071;45.062;7.356;2023-03-23T13:32:35;94966.31;;;17.43;52.86
49999;BME280;68071;45.062;7.356;2023-03-23T13:35:41;94966.41;;;17.62;53.20
49999;BME280;68071;45.062;7.356;2023-03-23T13:38:48;94969.34;;;17.27;54.13
49999;BME280;68071;45.062;7.356;2023-03-23T13:48:45;94940.59;;;17.58;54.71
49999;BME280;68071;45.062;7.356;2023-03-23T13:52:13;94944.63;;;17.47;54.86
49999;BME280;68071;45.062;7.356;2023-03-23T13:58:25;94945.00;;;18.09;55.19
49999;BME280;68071;45.062;7.356;2023-03-23T14:01:36;94940.38;;;18.71;51.05
49999;BME280;68071;45.062;7.356;2023-03-23T14:04:40;94937.72;;;18.77;49.45
49999;BME280;68071;45.062;7.356;2023-03-23T14:07:54;94938.72;;;17.95;52.08
49999;BME280;68071;45.062;7.356;2023-03-23T14:11:01;94945.84;;;17.15;53.75
49999;BME280;68071;45.062;7.356;2023-03-23T14:14:26;94938.38;;;17.12;54.46
49999;BME280;68071;45.062;7.356;2023-03-23T14:17:41;94933.56;;;17.94;52.45
49999;BME280;68071;45.062;7.356;2023-03-23T14:20:47;94923.44;;;18.37;50.58
49999;BME280;68071;45.062;7.356;2023-03-23T14:23:51;94929.47;;;17.67;55.49
49999;BME280;68071;45.062;7.356;2023-03-23T14:30:18;94920.91;;;17.61;52.53
49999;BME280;68071;45.062;7.356;2023-03-23T14:33:25;94916.88;;;17.31;52.79
49999;BME280;68071;45.062;7.356;2023-03-23T14:36:31;94921.97;;;17.23;54.11
49999;BME280;68071;45.062;7.356;2023-03-23T14:39:35;94921.13;;;17.04;57.58
49999;BME280;68071;45.062;7.356;2023-03-23T14:42:40;94918.28;;;17.26;56.09
49999;BME280;68071;45.062;7.356;2023-03-23T14:45:52;94906.22;;;17.79;55.81
49999;BME280;68071;45.062;7.356;2023-03-23T14:48:59;94904.97;;;17.80;53.29
49999;BME280;68071;45.062;7.356;2023-03-23T14:52:13;94922.44;;;17.21;55.71
49999;BME280;68071;45.062;7.356;2023-03-23T14:55:20;94921.84;;;17.58;53.76
49999;BME280;68071;45.062;7.356;2023-03-23T14:58:25;94918.41;;;17.63;53.99
49999;BME280;68071;45.062;7.356;2023-03-23T15:01:31;94911.53;;;17.46;54.12
49999;BME280;68071;45.062;7.356;2023-03-23T15:04:36;94909.34;;;17.91;53.31
49999;BME280;68071;45.062;7.356;2023-03-23T15:07:44;94915.19;;;17.65;53.99
49999;BME280;68071;45.062;7.356;2023-03-23T15:14:16;94914.69;;;17.57;56.98
49999;BME280;68071;45.062;7.356;2023-03-23T15:17:23;94910.19;;;17.60;56.19
49999;BME280;68071;45.062;7.356;2023-03-23T15:20:46;94919.09;;;17.36;55.23
49999;BME280;68071;45.062;7.356;2023-03-23T15:23:51;94922.06;;;16.88;56.67
49999;BME280;68071;45.062;7.356;2023-03-23T15:27:13;94922.63;;;17.27;59.57
49999;BME280;68071;45.062;7.356;2023-03-23T15:33:39;94922.97;;;18.29;54.60
49999;BME280;68071;45.062;7.356;2023-03-23T15:36:44;94919.22;;;18.33;53.57
49999;BME280;68071;45.062;7.356;2023-03-23T15:39:50;94922.47;;;18.22;54.07
49999;BME280;68071;45.062;7.356;2023-03-23T15:43:15;94922.19;;;18.38;53.24
49999;BME280;68071;45.062;7.356;2023-03-23T15:46:22;94924.50;;;18.12;54.57
49999;BME280;68071;45.062;7.356;2023-03-23T15:49:26;94919.25;;;18.51;52.93
49999;BME280;68071;45.062;7.356;2023-03-23T15:52:30;94913.16;;;18.81;52.15
49999;BME280;68071;45.062;7.356;2023-03-23T15:55:37;94918.09;;;19.04;52.68
49999;BME280;68071;45.062;7.356;2023-03-23T15:58:41;94921.34;;;19.22;50.50
49999;BME280;68071;45.062;7.356;2023-03-23T16:01:45;94915.56;;;19.34;49.25
49999;BME280;68071;45.062;7.356;2023-03-23T16:04:51;94917.50;;;18.91;51.16
49999;BME280;68071;45.062;7.356;2023-03-23T16:07:56;94918.59;;;18.10;54.47
49999;BME280;68071;45.062;7.356;2023-03-23T16:11:00;94926.44;;;17.93;54.79
49999;BME280;68071;45.062;7.356;2023-03-23T16:14:03;94920.25;;;17.98;54.14
49999;BME280;68071;45.062;7.356;2023-03-23T16:17:16;94923.06;;;18.07;56.30
49999;BME280;68071;45.062;7.356;2023-03-23T16:20:22;94921.63;;;17.93;56.31
49999;BME280;68071;45.062;7.356;2023-03-23T16:23:27;94907.44;;;17.78;56.63
49999;BME280;68071;45.062;7.356;2023-03-23T16:26:31;94913.44;;;18.08;55.31
49999;BME280;68071;45.062;7.356;2023-03-23T16:29:35;94919.47;;;17.47;55.85
49999;BME280;68071;45.062;7.356;2023-03-23T16:32:39;94921.63;;;17.93;55.00
49999;BME280;68071;45.062;7.356;2023-03-23T16:35:42;94931.47;;;17.26;57.81
49999;BME280;68071;45.062;7.356;2023-03-23T16:38:46;94936.09;;;17.19;59.62
49999;BME280;68071;45.062;7.356;2023-03-23T16:41:50;94931.75;;;16.16;63.46
49999;BME280;68071;45.062;7.356;2023-03-23T16:44:55;94930.97;;;16.96;60.62
49999;BME280;68071;45.062;7.356;2023-03-23T16:47:59;94938.03;;;16.87;61.16
49999;BME280;68071;45.062;7.356;2023-03-23T16:51:04;94942.97;;;16.61;62.41
49999;BME280;68071;45.062;7.356;2023-03-23T16:54:09;94940.03;;;15.42;68.58
49999;BME280;68071;45.062;7.356;2023-03-23T16:57:13;94952.75;;;15.69;65.66
49999;BME280;68071;45.062;7.356;2023-03-23T17:00:18;94952.41;;;15.67;65.90
49999;BME280;68071;45.062;7.356;2023-03-23T17:03:26;94949.06;;;15.21;67.43
49999;BME280;68071;45.062;7.356;2023-03-23T17:06:30;94959.00;;;14.79;67.76
49999;BME280;68071;45.062;7.356;2023-03-23T17:09:33;94959.09;;;14.59;69.63
49999;BME280;68071;45.062;7.356;2023-03-23T17:12:38;94966.44;;;14.24;71.57
49999;BME280;68071;45.062;7.356;2023-03-23T17:15:43;94968.19;;;14.01;73.25
49999;BME280;68071;45.062;7.356;2023-03-23T17:18:48;94973.84;;;13.97;72.99
49999;BME280;68071;45.062;7.356;2023-03-23T17:21:52;94971.66;;;14.05;73.12
49999;BME280;68071;45.062;7.356;2023-03-23T17:24:56;94973.03;;;13.80;72.90
49999;BME280;68071;45.062;7.356;2023-03-23T17:28:01;94987.28;;;13.09;80.11
49999;BME280;68071;45.062;7.356;2023-03-23T17:31:06;94988.06;;;13.09;79.04
49999;BME280;68071;45.062;7.356;2023-03-23T17:34:10;94991.41;;;13.00;79.01
49999;BME280;68071;45.062;7.356;2023-03-23T17:37:14;94988.81;;;13.30;76.22
49999;BME280;68071;45.062;7.356;2023-03-23T17:40:19;94987.63;;;14.01;71.28
49999;BME280;68071;45.062;7.356;2023-03-23T17:43:23;94991.63;;;13.83;72.13
49999;BME280;68071;45.062;7.356;2023-03-23T17:46:27;94998.97;;;13.57;73.80
49999;BME280;68071;45.062;7.356;2023-03-23T17:49:31;95005.81;;;12.95;78.44
49999;BME280;68071;45.062;7.356;2023-03-23T17:52:35;95010.41;;;12.82;79.22
49999;BME280;68071;45.062;7.356;2023-03-23T17:55:41;95015.59;;;12.60;79.48
49999;BME280;68071;45.062;7.356;2023-03-23T17:58:45;95017.31;;;12.94;78.35
49999;BME280;68071;45.062;7.356;2023-03-23T18:01:51;95016.41;;;12.80;79.50
49999;BME280;68071;45.062;7.356;2023-03-23T18:04:58;95018.66;;;12.65;79.50
49999;BME280;68071;45.062;7.356;2023-03-23T18:08:02;95029.13;;;12.34;81.19
49999;BME280;68071;45.062;7.356;2023-03-23T18:11:07;95021.59;;;12.34;81.72
49999;BME280;68071;45.062;7.356;2023-03-23T18:14:11;95032.78;;;11.48;86.63
49999;BME280;68071;45.062;7.356;2023-03-23T18:17:15;95028.63;;;12.15;81.38
49999;BME280;68071;45.062;7.356;2023-03-23T18:20:19;95028.44;;;12.50;78.80
49999;BME280;68071;45.062;7.356;2023-03-23T18:23:25;95034.84;;;12.47;78.27
49999;BME280;68071;45.062;7.356;2023-03-23T18:26:29;95033.94;;;12.30;79.00